createdAt,value
2018-11-20T00:02:20.851Z,0.60
2018-11-20T00:04:56.190Z,0.60
2018-11-20T00:09:35.335Z,0.60
2018-11-20T00:12:12.519Z,0.60
2018-11-20T00:14:47.962Z,0.70
2018-11-20T00:17:26.273Z,0.60
2018-11-20T00:20:15.703Z,0.60
2018-11-20T00:22:53.036Z,0.70
2018-11-20T00:25:28.520Z,0.70
2018-11-20T00:28:04.084Z,0.70
2018-11-20T00:33:47.169Z,0.70
2018-11-20T00:36:25.275Z,0.70
2018-11-20T00:39:17.922Z,0.70
2018-11-20T00:42:09.954Z,0.80
2018-11-20T00:45:46.225Z,0.80
2018-11-20T00:49:23.624Z,0.80
2018-11-20T00:51:58.799Z,0.70
2018-11-20T00:54:50.384Z,0.70
2018-11-20T00:57:26.849Z,0.70
2018-11-20T01:01:04.964Z,0.70
2018-11-20T01:03:48.393Z,0.60
2018-11-20T01:06:27.668Z,0.60
2018-11-20T01:09:03.069Z,0.60
2018-11-20T01:11:44.497Z,0.70
2018-11-20T01:19:02.625Z,0.70
2018-11-20T01:22:36.232Z,0.80
2018-11-20T01:25:12.086Z,0.70
2018-11-20T01:27:47.340Z,0.70
2018-11-20T01:30:22.672Z,0.70
2018-11-20T01:33:01.901Z,0.70
2018-11-20T01:35:47.379Z,0.70
2018-11-20T01:38:30.504Z,0.60
2018-11-20T01:41:05.026Z,0.70
2018-11-20T01:45:46.115Z,0.70
2018-11-20T01:48:23.403Z,0.70
2018-11-20T01:50:58.836Z,0.70
2018-11-20T01:53:37.056Z,0.70
2018-11-20T01:58:21.421Z,0.70
2018-11-20T02:00:56.771Z,0.70
2018-11-20T02:03:33.026Z,0.70
2018-11-20T02:06:22.602Z,0.70
2018-11-20T02:08:57.867Z,0.80
2018-11-20T02:11:33.176Z,0.70
2018-11-20T02:14:27.877Z,0.70
2018-11-20T02:17:10.797Z,0.80
2018-11-20T02:20:03.342Z,0.90
2018-11-20T02:22:38.804Z,0.80
2018-11-20T02:27:23.356Z,0.80
2018-11-20T02:30:03.716Z,0.70
2018-11-20T02:32:41.107Z,0.70
2018-11-20T02:35:16.354Z,0.70
2018-11-20T02:38:49.644Z,0.80
2018-11-20T02:41:24.781Z,0.80
2018-11-20T02:44:09.135Z,0.80
2018-11-20T02:47:11.818Z,0.70
2018-11-20T02:49:47.157Z,0.80
2018-11-20T02:52:55.888Z,0.80
2018-11-20T02:55:32.087Z,0.80
2018-11-20T02:58:07.385Z,0.70
2018-11-20T03:00:42.592Z,0.70
2018-11-20T03:03:28.958Z,0.70
2018-11-20T03:06:04.361Z,0.70
2018-11-20T03:08:39.740Z,0.70
2018-11-20T03:11:31.230Z,0.70
2018-11-20T03:14:23.877Z,0.70
2018-11-20T03:16:59.376Z,0.80
2018-11-20T03:19:34.766Z,0.70
2018-11-20T03:22:11.233Z,0.70
2018-11-20T03:24:46.701Z,0.70
2018-11-20T03:27:26.629Z,0.70
2018-11-20T03:30:37.091Z,0.80
2018-11-20T03:34:10.904Z,0.80
2018-11-20T03:36:46.348Z,0.90
2018-11-20T03:39:28.858Z,0.80
2018-11-20T03:42:07.169Z,0.80
2018-11-20T03:45:00.533Z,0.70
2018-11-20T03:48:35.677Z,0.80
2018-11-20T03:51:13.885Z,0.80
2018-11-20T03:53:48.960Z,0.70
2018-11-20T03:56:24.465Z,0.70
2018-11-20T04:00:00.226Z,0.80
2018-11-20T04:04:38.447Z,0.80
2018-11-20T04:08:18.710Z,0.80
2018-11-20T04:11:29.387Z,0.70
2018-11-20T04:16:09.445Z,0.70
2018-11-20T04:18:47.963Z,0.80
2018-11-20T04:21:23.332Z,0.70
2018-11-20T04:26:02.446Z,0.70
2018-11-20T04:28:58.165Z,0.70
2018-11-20T04:31:44.054Z,0.80
2018-11-20T04:36:22.481Z,0.70
2018-11-20T04:38:57.720Z,0.70
2018-11-20T04:41:33.062Z,0.70
2018-11-20T04:44:24.685Z,0.70
2018-11-20T04:47:02.996Z,0.80
2018-11-20T04:49:43.070Z,0.80
2018-11-20T04:52:51.772Z,0.70
2018-11-20T04:56:27.163Z,0.70
2018-11-20T04:59:37.893Z,0.70
2018-11-20T05:02:43.648Z,0.70
2018-11-20T05:05:19.296Z,0.70
2018-11-20T05:08:00.652Z,0.70
2018-11-20T05:13:25.266Z,0.70
2018-11-20T05:16:00.528Z,0.70
2018-11-20T05:18:35.973Z,0.70
2018-11-20T05:21:11.355Z,0.70
2018-11-20T05:23:52.796Z,0.70
2018-11-20T05:26:30.183Z,0.70
2018-11-20T05:31:14.454Z,0.70
2018-11-20T05:34:09.045Z,0.70
2018-11-20T05:38:49.419Z,0.70
2018-11-20T05:41:24.760Z,0.70
2018-11-20T05:46:38.018Z,0.70
2018-11-20T05:49:16.380Z,0.80
2018-11-20T05:54:28.281Z,0.70
2018-11-20T05:57:06.538Z,0.70
2018-11-20T05:59:41.892Z,0.80
2018-11-20T06:02:17.324Z,0.70
2018-11-20T06:05:09.971Z,0.70
2018-11-20T06:07:45.416Z,0.70
2018-11-20T06:10:20.796Z,0.70
2018-11-20T06:15:02.255Z,0.70
2018-11-20T06:18:38.429Z,0.70
2018-11-20T06:21:18.784Z,0.70
2018-11-20T06:24:06.003Z,0.70
2018-11-20T06:26:41.451Z,0.70
2018-11-20T06:29:16.913Z,0.70
2018-11-20T06:32:59.099Z,0.70
2018-11-20T06:36:04.692Z,0.70
2018-11-20T06:39:43.274Z,0.70
2018-11-20T06:42:21.794Z,0.70
2018-11-20T06:45:58.059Z,0.60
2018-11-20T06:48:34.425Z,0.60
2018-11-20T06:51:30.145Z,0.60
2018-11-20T06:55:05.393Z,0.70
2018-11-20T06:58:17.227Z,0.70
2018-11-20T07:00:53.655Z,0.70
2018-11-20T07:05:38.024Z,0.60
2018-11-20T07:08:13.490Z,0.60
2018-11-20T07:10:51.980Z,0.60
2018-11-20T07:13:30.905Z,0.70
2018-11-20T07:16:46.752Z,0.60
2018-11-20T07:19:54.294Z,0.60
2018-11-20T07:22:31.759Z,0.60
2018-11-20T07:25:07.037Z,0.60
2018-11-20T07:27:42.408Z,0.60
2018-11-20T07:30:25.921Z,0.70
2018-11-20T07:33:07.490Z,0.70
2018-11-20T07:35:50.943Z,0.80
2018-11-20T07:38:37.217Z,0.80
2018-11-20T07:41:15.485Z,0.80
2018-11-20T07:43:51.104Z,0.90
2018-11-20T07:46:41.572Z,0.90
2018-11-20T07:51:19.999Z,1.00
2018-11-20T07:53:54.327Z,1.00
2018-11-20T07:56:29.702Z,0.90
2018-11-20T08:00:05.048Z,1.00
2018-11-20T08:03:38.409Z,1.00
2018-11-20T08:07:13.411Z,1.00
2018-11-20T08:09:52.520Z,0.90
2018-11-20T08:12:33.553Z,0.90
2018-11-20T08:15:40.208Z,0.90
2018-11-20T08:18:20.486Z,0.90
2018-11-20T08:21:56.757Z,0.90
2018-11-20T08:24:31.963Z,0.90
2018-11-20T08:30:16.676Z,1.00
2018-11-20T08:32:50.886Z,1.00
2018-11-20T08:35:25.413Z,1.00
2018-11-20T08:38:14.784Z,1.00
2018-11-20T08:42:52.290Z,1.10
2018-11-20T08:45:27.528Z,1.10
2018-11-20T08:48:07.746Z,1.00
2018-11-20T08:51:00.953Z,1.00
2018-11-20T08:53:42.038Z,1.10
2018-11-20T08:56:21.346Z,1.10
2018-11-20T08:58:56.741Z,1.10
2018-11-20T09:01:33.868Z,1.20
2018-11-20T09:04:08.917Z,1.10
2018-11-20T09:06:52.965Z,1.10
2018-11-20T09:11:36.817Z,1.10
2018-11-20T09:14:20.044Z,1.10
2018-11-20T09:17:54.298Z,1.20
2018-11-20T09:20:29.621Z,1.20
2018-11-20T09:23:06.689Z,1.20
2018-11-20T09:25:42.008Z,1.20
2018-11-20T09:30:51.981Z,1.30
2018-11-20T09:33:30.000Z,1.30
2018-11-20T09:36:05.589Z,1.30
2018-11-20T09:38:58.889Z,1.40
2018-11-20T09:41:34.840Z,1.30
2018-11-20T09:45:27.930Z,1.30
2018-11-20T09:48:17.915Z,1.30
2018-11-20T09:51:01.186Z,1.30
2018-11-20T09:55:40.184Z,1.30
2018-11-20T09:58:47.020Z,1.30
2018-11-20T10:06:07.632Z,1.40
2018-11-20T10:08:53.091Z,1.40
2018-11-20T10:11:31.484Z,1.50
2018-11-20T10:14:06.783Z,1.50
2018-11-20T10:16:53.124Z,1.50
2018-11-20T10:20:32.261Z,1.60
2018-11-20T10:23:21.741Z,1.60
2018-11-20T10:25:57.096Z,1.50
2018-11-20T10:28:32.520Z,1.60
2018-11-20T10:33:10.892Z,1.60
2018-11-20T10:35:47.520Z,1.70
2018-11-20T10:40:30.600Z,1.80
2018-11-20T10:43:25.964Z,1.70
2018-11-20T10:46:15.155Z,1.80
2018-11-20T10:48:53.954Z,1.80
2018-11-20T10:51:32.265Z,1.80
2018-11-20T10:54:12.320Z,1.90
2018-11-20T10:59:26.403Z,2.00
2018-11-20T11:02:01.940Z,2.00
2018-11-20T11:04:37.220Z,1.90
2018-11-20T11:07:11.911Z,2.00
2018-11-20T11:12:20.684Z,2.00
2018-11-20T11:17:00.592Z,2.00
2018-11-20T11:19:35.843Z,1.90
2018-11-20T11:22:11.186Z,1.90
2018-11-20T11:24:49.587Z,1.90
2018-11-20T11:27:24.777Z,2.00
2018-11-20T11:32:03.050Z,2.00
2018-11-20T11:34:40.186Z,2.10
2018-11-20T11:39:57.064Z,2.30
2018-11-20T11:42:32.300Z,2.20
2018-11-20T11:45:09.485Z,2.30
2018-11-20T11:47:54.862Z,2.40
2018-11-20T11:52:36.157Z,2.50
2018-11-20T11:57:17.658Z,2.40
2018-11-20T11:59:52.077Z,2.30
